createdAt,value
2018-04-27T00:01:53.787Z,29.60
2018-04-27T00:04:23.562Z,29.70
2018-04-27T00:06:53.427Z,29.50
2018-04-27T00:09:24.171Z,29.40
2018-04-27T00:11:54.449Z,29.40
2018-04-27T00:14:24.246Z,29.20
2018-04-27T00:16:55.536Z,29.20
2018-04-27T00:19:25.342Z,29.20
2018-04-27T00:21:55.046Z,29.00
2018-04-27T00:24:24.818Z,29.10
2018-04-27T00:26:54.936Z,28.90
2018-04-27T00:29:24.725Z,29.00
2018-04-27T00:31:54.532Z,29.00
2018-04-27T00:34:24.424Z,29.00
2018-04-27T00:36:54.543Z,29.00
2018-04-27T00:39:24.398Z,28.90
2018-04-27T00:41:54.274Z,29.00
2018-04-27T00:44:24.320Z,28.90
2018-04-27T00:46:54.092Z,28.80
2018-04-27T00:49:23.885Z,28.90
2018-04-27T00:51:53.748Z,28.80
2018-04-27T00:54:23.629Z,29.00
2018-04-27T00:56:53.705Z,29.40
2018-04-27T00:59:23.577Z,29.30
2018-04-27T01:01:53.320Z,29.30
2018-04-27T01:04:23.320Z,29.40
2018-04-27T01:06:53.167Z,29.60
2018-04-27T01:09:23.016Z,30.00
2018-04-27T01:11:52.815Z,30.30
2018-04-27T01:14:22.597Z,30.50
2018-04-27T01:16:53.149Z,31.20
2018-04-27T01:19:23.067Z,31.20
2018-04-27T01:21:53.026Z,31.50
2018-04-27T01:24:22.804Z,32.20
2018-04-27T01:26:52.618Z,32.40
2018-04-27T01:29:22.399Z,32.50
2018-04-27T01:31:52.512Z,32.30
2018-04-27T01:34:22.540Z,32.40
2018-04-27T01:36:53.211Z,32.30
2018-04-27T01:39:25.312Z,32.10
2018-04-27T01:41:55.254Z,32.10
2018-04-27T01:44:26.196Z,32.00
2018-04-27T01:46:56.168Z,32.00
2018-04-27T01:49:25.941Z,31.30
2018-04-27T01:51:55.773Z,31.00
2018-04-27T01:54:25.762Z,30.90
2018-04-27T01:56:55.954Z,30.60
2018-04-27T01:59:25.960Z,29.60
2018-04-27T02:01:55.949Z,28.60
2018-04-27T02:04:25.779Z,27.50
2018-04-27T02:06:55.734Z,26.90
2018-04-27T02:09:29.159Z,26.10
2018-04-27T02:11:59.138Z,25.40
2018-04-27T02:14:28.955Z,25.00
2018-04-27T02:16:59.591Z,24.20
2018-04-27T02:19:29.526Z,24.20
2018-04-27T02:22:01.228Z,24.00
2018-04-27T02:24:31.181Z,23.80
2018-04-27T02:27:00.997Z,23.70
2018-04-27T02:29:30.793Z,23.60
2018-04-27T02:32:00.590Z,23.30
2018-04-27T02:34:30.349Z,23.30
2018-04-27T02:37:00.264Z,23.00
2018-04-27T02:39:30.031Z,22.90
2018-04-27T02:42:00.172Z,22.50
2018-04-27T02:44:30.543Z,22.20
2018-04-27T02:47:00.789Z,22.00
2018-04-27T02:49:31.719Z,21.90
2018-04-27T02:52:01.544Z,21.90
2018-04-27T02:54:31.443Z,21.70
2018-04-27T02:57:02.337Z,21.70
2018-04-27T02:59:32.385Z,21.60
2018-04-27T03:02:02.316Z,21.40
2018-04-27T03:04:35.296Z,21.30
2018-04-27T03:07:06.285Z,21.20
2018-04-27T03:09:37.000Z,21.30
2018-04-27T03:12:13.071Z,21.20
2018-04-27T03:14:43.600Z,20.90
2018-04-27T03:17:13.554Z,20.80
2018-04-27T03:19:43.685Z,20.60
2018-04-27T03:22:13.587Z,20.30
2018-04-27T03:24:43.493Z,20.00
2018-04-27T03:27:13.311Z,19.70
2018-04-27T03:29:43.206Z,19.40
2018-04-27T03:32:13.207Z,19.20
2018-04-27T03:34:43.080Z,19.20
2018-04-27T03:37:14.119Z,19.30
2018-04-27T03:39:54.448Z,19.40
2018-04-27T03:42:26.968Z,19.50
2018-04-27T03:44:56.852Z,19.50
2018-04-27T03:47:26.604Z,19.60
2018-04-27T03:49:56.659Z,19.40
2018-04-27T03:52:26.477Z,19.40
2018-04-27T03:54:56.399Z,19.40
2018-04-27T03:57:26.255Z,19.20
2018-04-27T04:00:07.180Z,19.20
2018-04-27T04:02:48.766Z,19.40
2018-04-27T04:05:36.271Z,19.40
2018-04-27T04:08:06.001Z,19.20
2018-04-27T04:10:35.783Z,18.90
2018-04-27T04:13:05.658Z,18.70
2018-04-27T04:15:35.527Z,18.50
2018-04-27T04:18:05.556Z,18.30
2018-04-27T04:20:35.378Z,18.10
2018-04-27T04:23:05.902Z,17.60
2018-04-27T04:25:35.730Z,17.60
2018-04-27T04:28:05.559Z,17.40
2018-04-27T04:30:35.341Z,17.30
2018-04-27T04:33:05.113Z,17.10
2018-04-27T04:35:34.873Z,17.00
2018-04-27T04:38:04.888Z,16.90
2018-04-27T04:40:35.220Z,16.70
2018-04-27T04:43:05.120Z,16.60
2018-04-27T04:45:34.935Z,16.50
2018-04-27T04:48:05.490Z,16.40
2018-04-27T04:50:35.268Z,16.40
2018-04-27T04:53:05.087Z,16.40
2018-04-27T04:55:35.689Z,16.30
2018-04-27T04:58:05.566Z,16.30
2018-04-27T05:00:35.759Z,16.30
2018-04-27T05:03:05.588Z,16.20
2018-04-27T05:05:35.410Z,16.10
2018-04-27T05:08:05.196Z,16.00
2018-04-27T05:10:36.040Z,15.80
2018-04-27T05:13:05.847Z,15.80
2018-04-27T05:15:36.452Z,16.00
2018-04-27T05:18:23.944Z,16.00
2018-04-27T05:20:53.725Z,16.10
2018-04-27T05:23:23.628Z,16.50
2018-04-27T05:25:53.414Z,16.50
2018-04-27T05:28:23.224Z,16.60
2018-04-27T05:30:53.149Z,16.50
2018-04-27T05:33:23.004Z,16.50
2018-04-27T05:35:52.797Z,16.60
2018-04-27T05:38:22.624Z,16.50
2018-04-27T05:40:52.486Z,16.50
2018-04-27T05:43:22.273Z,16.50
2018-04-27T05:45:52.100Z,16.50
2018-04-27T05:48:21.991Z,16.40
2018-04-27T05:50:52.648Z,16.30
2018-04-27T05:53:22.599Z,16.10
2018-04-27T05:55:53.195Z,16.00
2018-04-27T05:58:23.311Z,15.80
2018-04-27T06:00:53.272Z,15.70
2018-04-27T06:03:24.068Z,15.50
2018-04-27T06:05:53.992Z,15.40
2018-04-27T06:08:23.940Z,15.30
2018-04-27T06:10:53.802Z,15.30
2018-04-27T06:13:23.630Z,15.20
2018-04-27T06:15:53.670Z,15.20
2018-04-27T06:18:23.960Z,15.10
2018-04-27T06:20:53.697Z,15.00
2018-04-27T06:23:23.475Z,15.00
2018-04-27T06:25:54.523Z,15.00
2018-04-27T06:28:24.341Z,14.90
2018-04-27T06:30:54.203Z,14.80
2018-04-27T06:33:23.974Z,14.70
2018-04-27T06:35:53.775Z,14.60
2018-04-27T06:38:23.735Z,14.60
2018-04-27T06:40:53.652Z,14.50
2018-04-27T06:43:23.633Z,14.40
2018-04-27T06:45:53.573Z,14.40
2018-04-27T06:48:23.510Z,14.30
2018-04-27T06:50:54.112Z,14.20
2018-04-27T06:53:24.070Z,14.20
2018-04-27T06:55:53.922Z,14.10
2018-04-27T06:58:23.712Z,14.10
2018-04-27T07:00:53.541Z,14.10
2018-04-27T07:03:23.347Z,14.10
2018-04-27T07:05:53.159Z,14.00
2018-04-27T07:08:23.006Z,13.90
2018-04-27T07:10:52.810Z,13.80
2018-04-27T07:13:22.636Z,13.80
2018-04-27T07:15:52.487Z,13.70
2018-04-27T07:18:22.356Z,13.60
2018-04-27T07:20:52.214Z,13.70
2018-04-27T07:23:22.099Z,13.70
2018-04-27T07:25:51.898Z,13.70
2018-04-27T07:28:21.877Z,13.60
2018-04-27T07:30:51.683Z,13.70
2018-04-27T07:33:21.568Z,13.70
2018-04-27T07:35:51.400Z,13.60
2018-04-27T07:38:21.281Z,13.60
2018-04-27T07:40:51.148Z,13.50
2018-04-27T07:43:20.982Z,13.50
2018-04-27T07:45:51.045Z,13.40
2018-04-27T07:48:21.130Z,13.40
2018-04-27T07:50:51.773Z,13.60
2018-04-27T07:53:21.584Z,13.60
2018-04-27T07:55:51.321Z,13.70
2018-04-27T07:58:21.249Z,13.70
2018-04-27T08:00:51.247Z,13.70
2018-04-27T08:03:21.281Z,13.60
2018-04-27T08:05:51.191Z,13.50
2018-04-27T08:08:21.109Z,13.50
2018-04-27T08:10:51.239Z,13.40
2018-04-27T08:13:22.370Z,13.30
2018-04-27T08:15:52.363Z,13.20
2018-04-27T08:18:22.270Z,13.10
2018-04-27T08:20:52.424Z,13.00
2018-04-27T08:23:23.260Z,12.80
2018-04-27T08:25:53.257Z,12.80
2018-04-27T08:28:23.177Z,12.70
2018-04-27T08:30:53.100Z,12.60
2018-04-27T08:33:23.116Z,12.50
2018-04-27T08:35:53.066Z,12.50
2018-04-27T08:38:22.961Z,12.40
2018-04-27T08:40:52.986Z,12.30
2018-04-27T08:43:23.609Z,12.10
2018-04-27T08:45:53.444Z,12.10
2018-04-27T08:48:23.335Z,12.10
2018-04-27T08:50:54.350Z,12.10
2018-04-27T08:53:24.446Z,12.00
2018-04-27T08:55:54.275Z,11.90
2018-04-27T08:58:24.115Z,11.90
2018-04-27T09:00:53.906Z,11.80
2018-04-27T09:03:25.084Z,11.80
2018-04-27T09:05:55.710Z,11.60
2018-04-27T09:08:25.565Z,11.60
2018-04-27T09:10:55.464Z,11.60
2018-04-27T09:13:25.351Z,11.50
2018-04-27T09:15:55.993Z,11.50
2018-04-27T09:18:26.001Z,11.50
2018-04-27T09:20:56.752Z,11.30
2018-04-27T09:23:26.576Z,11.30
2018-04-27T09:25:56.358Z,11.30
2018-04-27T09:28:26.126Z,11.20
2018-04-27T09:30:55.955Z,11.20
2018-04-27T09:33:25.694Z,11.20
2018-04-27T09:35:55.544Z,11.20
2018-04-27T09:38:25.421Z,11.20
2018-04-27T09:40:55.238Z,11.20
2018-04-27T09:43:25.898Z,11.10
2018-04-27T09:45:55.722Z,11.10
2018-04-27T09:48:26.349Z,11.00
2018-04-27T09:50:56.377Z,11.00
2018-04-27T09:53:26.986Z,10.90
2018-04-27T09:55:56.812Z,10.90
2018-04-27T09:58:26.637Z,10.90
2018-04-27T10:00:56.433Z,10.80
2018-04-27T10:03:26.299Z,10.80
2018-04-27T10:05:56.096Z,10.70
2018-04-27T10:08:25.946Z,10.60
2018-04-27T10:10:56.466Z,10.60
2018-04-27T10:13:27.084Z,10.50
2018-04-27T10:15:57.000Z,10.50
2018-04-27T10:18:26.801Z,10.50
2018-04-27T10:20:56.656Z,10.50
2018-04-27T10:23:26.631Z,10.50
2018-04-27T10:25:56.367Z,10.40
2018-04-27T10:28:26.144Z,10.40
2018-04-27T10:30:56.049Z,10.40
2018-04-27T10:33:25.773Z,10.30
2018-04-27T10:35:55.617Z,10.30
2018-04-27T10:38:25.418Z,10.30
2018-04-27T10:40:55.216Z,10.30
2018-04-27T10:43:25.054Z,10.20
2018-04-27T10:45:54.873Z,10.20
2018-04-27T10:48:25.011Z,10.20
2018-04-27T10:50:54.934Z,10.20
2018-04-27T10:53:24.702Z,10.20
2018-04-27T10:55:54.497Z,10.20
2018-04-27T10:58:24.242Z,10.10
2018-04-27T11:00:54.030Z,10.10
2018-04-27T11:03:23.917Z,10.10
2018-04-27T11:05:53.783Z,10.20
2018-04-27T11:08:23.787Z,10.20
2018-04-27T11:10:53.840Z,10.20
2018-04-27T11:13:23.925Z,10.20
2018-04-27T11:15:53.885Z,10.20
2018-04-27T11:18:23.872Z,10.10
2018-04-27T11:20:53.629Z,10.00
2018-04-27T11:23:23.485Z,10.00
2018-04-27T11:25:53.346Z,10.00
2018-04-27T11:28:23.228Z,9.90
2018-04-27T11:30:53.873Z,9.90
2018-04-27T11:33:23.757Z,9.90
2018-04-27T11:35:53.477Z,10.00
2018-04-27T11:38:23.269Z,10.10
2018-04-27T11:40:53.046Z,10.10
2018-04-27T11:43:22.848Z,10.20
2018-04-27T11:45:52.614Z,10.20
2018-04-27T11:48:22.537Z,10.10
2018-04-27T11:50:52.354Z,10.10
2018-04-27T11:53:22.301Z,10.20
2018-04-27T11:55:52.158Z,10.20
2018-04-27T11:58:22.300Z,10.10
2018-04-27T12:00:52.432Z,10.10
2018-04-27T12:03:22.335Z,10.10
2018-04-27T12:05:52.346Z,10.10
2018-04-27T12:08:22.178Z,10.20
2018-04-27T12:10:52.156Z,10.20
2018-04-27T12:13:21.933Z,10.20
2018-04-27T12:15:51.931Z,10.30
2018-04-27T12:18:21.852Z,10.30
2018-04-27T12:20:51.670Z,10.30
2018-04-27T12:23:22.184Z,10.30
2018-04-27T12:25:51.970Z,10.30
2018-04-27T12:28:22.119Z,10.30
2018-04-27T12:30:52.042Z,10.30
2018-04-27T12:33:21.850Z,10.30
2018-04-27T12:35:52.402Z,10.40
2018-04-27T12:38:22.233Z,10.40
2018-04-27T12:40:52.038Z,10.40
2018-04-27T12:43:21.845Z,10.50
2018-04-27T12:45:51.821Z,10.40
2018-04-27T12:48:21.670Z,10.40
2018-04-27T12:50:51.470Z,10.50
2018-04-27T12:53:21.306Z,10.40
2018-04-27T12:55:51.741Z,10.50
2018-04-27T12:58:21.975Z,10.40
2018-04-27T13:00:51.768Z,10.50
2018-04-27T13:03:21.539Z,10.40
2018-04-27T13:05:51.384Z,10.50
2018-04-27T13:08:21.532Z,10.50
2018-04-27T13:10:51.328Z,10.40
2018-04-27T13:13:21.130Z,10.40
2018-04-27T13:15:50.977Z,10.40
2018-04-27T13:18:20.762Z,10.40
2018-04-27T13:20:50.607Z,10.40
2018-04-27T13:23:20.474Z,10.40
2018-04-27T13:25:50.300Z,10.40
2018-04-27T13:28:20.363Z,10.50
2018-04-27T13:30:50.150Z,10.50
2018-04-27T13:33:20.000Z,10.60
2018-04-27T13:35:50.950Z,10.60
2018-04-27T13:38:21.642Z,10.70
2018-04-27T13:40:51.556Z,10.70
2018-04-27T13:43:22.813Z,10.70
2018-04-27T13:45:52.623Z,10.70
2018-04-27T13:48:22.571Z,10.80
2018-04-27T13:50:52.396Z,10.70
2018-04-27T13:53:22.323Z,10.70
2018-04-27T13:55:52.201Z,10.80
2018-04-27T13:58:22.104Z,10.80
2018-04-27T14:00:52.472Z,10.80
2018-04-27T14:03:22.532Z,10.70
2018-04-27T14:05:52.279Z,10.70
2018-04-27T14:08:22.069Z,10.70
2018-04-27T14:10:51.930Z,10.80
2018-04-27T14:13:21.816Z,10.80
2018-04-27T14:15:51.570Z,10.90
2018-04-27T14:18:21.581Z,10.80
2018-04-27T14:20:51.490Z,10.90
2018-04-27T14:23:21.317Z,10.80
2018-04-27T14:25:51.470Z,10.90
2018-04-27T14:28:21.305Z,10.90
2018-04-27T14:30:51.321Z,11.00
2018-04-27T14:33:21.151Z,11.00
2018-04-27T14:35:50.993Z,11.00
2018-04-27T14:38:20.978Z,11.00
2018-04-27T14:40:50.751Z,10.90
2018-04-27T14:43:20.565Z,11.00
2018-04-27T14:45:50.354Z,10.90
2018-04-27T14:48:20.209Z,10.90
2018-04-27T14:50:50.066Z,11.00
2018-04-27T14:53:19.948Z,11.00
2018-04-27T14:55:49.803Z,10.90
2018-04-27T14:58:20.311Z,11.00
2018-04-27T15:00:52.498Z,11.00
2018-04-27T15:03:22.863Z,11.10
2018-04-27T15:05:53.223Z,11.10
2018-04-27T15:08:24.318Z,11.10
2018-04-27T15:10:55.006Z,11.10
2018-04-27T15:13:25.536Z,11.10
2018-04-27T15:15:56.093Z,11.10
2018-04-27T15:18:26.437Z,11.20
2018-04-27T15:20:56.613Z,11.10
2018-04-27T15:23:28.524Z,11.00
2018-04-27T15:25:58.377Z,10.80
2018-04-27T15:28:28.149Z,11.00
2018-04-27T15:30:58.012Z,10.90
2018-04-27T15:33:27.802Z,11.00
2018-04-27T15:35:57.736Z,11.10
2018-04-27T15:38:27.532Z,10.90
2018-04-27T15:40:57.356Z,10.90
2018-04-27T15:43:27.141Z,10.80
2018-04-27T15:45:57.011Z,10.90
2018-04-27T15:48:27.466Z,11.10
2018-04-27T15:50:57.176Z,11.10
2018-04-27T15:53:26.990Z,10.90
2018-04-27T15:55:56.821Z,10.90
2018-04-27T15:58:26.561Z,10.80
2018-04-27T16:00:56.298Z,10.80
2018-04-27T16:03:26.190Z,11.00
2018-04-27T16:05:56.014Z,11.10
2018-04-27T16:08:25.862Z,11.10
2018-04-27T16:10:55.621Z,11.10
2018-04-27T16:13:36.054Z,11.10
2018-04-27T16:16:05.817Z,11.10
2018-04-27T16:18:35.690Z,11.00
2018-04-27T16:21:05.522Z,11.10
2018-04-27T16:23:35.284Z,11.10
2018-04-27T16:26:05.081Z,11.20
2018-04-27T16:28:34.857Z,11.30
2018-04-27T16:31:04.664Z,11.30
2018-04-27T16:33:34.568Z,11.40
2018-04-27T16:36:05.649Z,11.40
2018-04-27T16:38:35.551Z,11.40
2018-04-27T16:41:05.563Z,11.40
2018-04-27T16:43:35.490Z,11.40
2018-04-27T16:46:05.283Z,11.40
2018-04-27T16:48:35.078Z,11.50
2018-04-27T16:51:05.053Z,11.50
2018-04-27T16:53:35.409Z,11.40
2018-04-27T16:56:05.798Z,11.40
2018-04-27T16:58:36.560Z,11.30
2018-04-27T17:01:06.458Z,11.60
2018-04-27T17:03:36.486Z,11.50
2018-04-27T17:06:06.295Z,11.40
2018-04-27T17:08:36.131Z,11.30
2018-04-27T17:11:07.538Z,11.30
2018-04-27T17:13:37.487Z,11.10
2018-04-27T17:16:07.296Z,11.20
2018-04-27T17:18:37.225Z,11.40
2018-04-27T17:21:07.260Z,11.50
2018-04-27T17:23:37.120Z,11.40
2018-04-27T17:26:06.944Z,11.60
2018-04-27T17:28:36.871Z,11.70
2018-04-27T17:31:06.867Z,11.50
2018-04-27T17:33:36.710Z,11.60
2018-04-27T17:36:06.595Z,11.50
2018-04-27T17:38:36.451Z,11.70
2018-04-27T17:41:06.215Z,11.70
2018-04-27T17:43:35.968Z,11.80
2018-04-27T17:46:05.784Z,12.10
2018-04-27T17:48:35.706Z,12.20
2018-04-27T17:51:06.455Z,12.20
2018-04-27T17:53:36.216Z,12.30
2018-04-27T17:56:06.864Z,11.70
2018-04-27T17:58:36.673Z,11.70
2018-04-27T18:01:07.044Z,11.80
2018-04-27T18:03:36.842Z,11.80
2018-04-27T18:06:06.716Z,11.90
2018-04-27T18:08:36.521Z,12.00
2018-04-27T18:11:06.349Z,12.20
2018-04-27T18:13:36.413Z,12.40
2018-04-27T18:16:06.340Z,12.50
2018-04-27T18:18:36.298Z,12.60
2018-04-27T18:21:06.370Z,12.60
2018-04-27T18:23:36.380Z,12.20
2018-04-27T18:26:06.144Z,12.00
2018-04-27T18:28:35.912Z,12.20
2018-04-27T18:31:05.810Z,12.50
2018-04-27T18:33:36.014Z,12.80
2018-04-27T18:36:06.057Z,13.00
2018-04-27T18:38:35.900Z,13.10
2018-04-27T18:41:05.750Z,13.00
2018-04-27T18:43:35.605Z,13.00
2018-04-27T18:46:05.571Z,13.00
2018-04-27T18:48:35.828Z,12.90
2018-04-27T18:51:05.801Z,13.00
2018-04-27T18:53:36.866Z,13.10
2018-04-27T18:56:08.097Z,13.00
2018-04-27T18:58:37.923Z,12.90
2018-04-27T19:01:07.731Z,13.30
2018-04-27T19:03:37.588Z,13.60
2018-04-27T19:06:07.902Z,13.30
2018-04-27T19:08:38.084Z,13.30
2018-04-27T19:11:07.880Z,13.70
2018-04-27T19:13:37.675Z,14.00
2018-04-27T19:16:07.495Z,13.70
2018-04-27T19:18:37.507Z,13.70
2018-04-27T19:21:07.562Z,13.90
2018-04-27T19:23:40.420Z,14.10
2018-04-27T19:26:10.442Z,13.80
2018-04-27T19:28:40.250Z,13.70
2018-04-27T19:31:10.179Z,13.80
2018-04-27T19:33:40.025Z,14.00
2018-04-27T19:36:09.840Z,14.00
2018-04-27T19:38:39.677Z,14.20
2018-04-27T19:41:09.652Z,14.40
2018-04-27T19:43:39.429Z,14.30
2018-04-27T19:46:09.416Z,14.30
2018-04-27T19:48:39.476Z,14.40
2018-04-27T19:51:09.517Z,14.50
2018-04-27T19:53:39.477Z,14.00
2018-04-27T19:56:09.373Z,14.20
2018-04-27T19:58:40.221Z,14.40
2018-04-27T20:01:10.444Z,14.40
2018-04-27T20:03:40.345Z,14.50
2018-04-27T20:06:10.141Z,14.60
2018-04-27T20:08:40.512Z,14.80
2018-04-27T20:11:10.565Z,15.00
2018-04-27T20:13:42.223Z,15.20
2018-04-27T20:16:12.063Z,15.30
2018-04-27T20:18:42.014Z,15.10
2018-04-27T20:21:11.781Z,15.20
2018-04-27T20:23:41.625Z,15.00
2018-04-27T20:26:12.601Z,14.90
2018-04-27T20:28:42.760Z,14.90
2018-04-27T20:31:12.672Z,14.60
2018-04-27T20:33:42.710Z,14.60
2018-04-27T20:36:12.524Z,14.40
2018-04-27T20:38:43.134Z,14.70
2018-04-27T20:41:17.004Z,14.70
2018-04-27T20:43:47.195Z,14.80
2018-04-27T20:46:19.144Z,15.20
2018-04-27T20:48:49.429Z,15.10
2018-04-27T20:51:22.194Z,15.00
2018-04-27T20:53:53.153Z,15.40
2018-04-27T20:56:24.314Z,15.70
2018-04-27T20:58:54.630Z,15.40
2018-04-27T21:01:24.828Z,15.20
2018-04-27T21:03:56.992Z,15.40
2018-04-27T21:06:27.387Z,15.20
2018-04-27T21:08:57.204Z,15.20
2018-04-27T21:11:28.457Z,15.20
2018-04-27T21:13:58.238Z,15.10
2018-04-27T21:16:28.081Z,15.20
2018-04-27T21:18:57.949Z,15.10
2018-04-27T21:21:27.911Z,14.60
2018-04-27T21:23:57.812Z,14.20
2018-04-27T21:26:29.962Z,14.30
2018-04-27T21:29:00.173Z,14.40
2018-04-27T21:31:30.126Z,14.40
2018-04-27T21:34:00.911Z,14.60
2018-04-27T21:36:32.092Z,14.60
2018-04-27T21:42:10.894Z,14.50
2018-04-27T21:44:46.469Z,14.80
2018-04-27T21:47:35.007Z,15.00
2018-04-27T21:50:08.945Z,15.20
2018-04-27T21:52:57.317Z,15.20
2018-04-27T21:55:27.860Z,15.20
2018-04-27T21:58:08.105Z,15.10
2018-04-27T22:00:37.950Z,14.80
2018-04-27T22:03:16.478Z,14.70
2018-04-27T22:06:06.712Z,14.70
2018-04-27T22:08:54.495Z,14.70
2018-04-27T22:11:30.572Z,14.80
2018-04-27T22:14:00.346Z,14.90
2018-04-27T22:16:46.588Z,14.90
2018-04-27T22:19:17.932Z,14.70
2018-04-27T22:21:48.885Z,15.00
2018-04-27T22:24:37.107Z,15.00
2018-04-27T22:27:08.288Z,14.90
2018-04-27T22:29:52.112Z,14.60
2018-04-27T22:32:26.027Z,14.90
2018-04-27T22:34:59.074Z,15.40
2018-04-27T22:37:30.112Z,16.40
2018-04-27T22:40:08.628Z,16.40
2018-04-27T22:42:57.048Z,16.90
2018-04-27T22:45:31.688Z,17.40
2018-04-27T22:48:30.693Z,16.80
2018-04-27T22:51:01.013Z,16.50
2018-04-27T22:53:51.271Z,16.20
2018-04-27T22:56:36.837Z,16.30
2018-04-27T22:59:07.016Z,16.20
2018-04-27T23:01:36.788Z,15.90
2018-04-27T23:04:06.863Z,15.80
2018-04-27T23:06:36.817Z,15.50
2018-04-27T23:09:07.544Z,15.60
2018-04-27T23:11:38.544Z,15.30
2018-04-27T23:14:08.640Z,15.20
2018-04-27T23:16:38.438Z,15.00
2018-04-27T23:19:10.149Z,14.90
2018-04-27T23:21:40.333Z,14.90
2018-04-27T23:24:11.275Z,15.20
2018-04-27T23:26:41.867Z,15.10
2018-04-27T23:29:11.723Z,15.00
2018-04-27T23:31:43.812Z,15.00
2018-04-27T23:34:13.711Z,15.00
2018-04-27T23:36:43.470Z,15.30
2018-04-27T23:39:13.557Z,15.20
2018-04-27T23:41:43.585Z,14.90
2018-04-27T23:44:13.950Z,15.10
2018-04-27T23:46:44.061Z,15.40
2018-04-27T23:49:14.191Z,15.40
2018-04-27T23:51:44.452Z,15.20
2018-04-27T23:54:14.676Z,15.30
2018-04-27T23:56:45.700Z,15.20
2018-04-27T23:59:18.623Z,15.00
